createdAt,value
2018-10-18T00:01:23.091Z,16.10
2018-10-18T00:03:50.600Z,16.20
2018-10-18T00:06:18.218Z,16.70
2018-10-18T00:08:45.693Z,16.50
2018-10-18T00:11:13.200Z,16.10
2018-10-18T00:13:40.708Z,16.40
2018-10-18T00:16:08.330Z,15.80
2018-10-18T00:48:05.519Z,15.80
2018-10-18T00:50:33.082Z,15.80
2018-10-18T00:53:00.785Z,15.80
2018-10-18T00:55:28.424Z,15.80
2018-10-18T00:57:55.937Z,15.60
2018-10-18T01:00:23.464Z,15.80
2018-10-18T01:02:50.992Z,15.50
2018-10-18T01:05:18.512Z,15.30
2018-10-18T01:07:46.422Z,15.70
2018-10-18T01:10:14.006Z,15.60
2018-10-18T01:15:09.021Z,15.80
2018-10-18T01:17:36.566Z,15.20
2018-10-18T01:22:32.288Z,15.30
2018-10-18T01:24:59.876Z,15.70
2018-10-18T01:27:27.405Z,15.60
2018-10-18T01:29:54.977Z,15.80
2018-10-18T01:34:49.988Z,14.90
2018-10-18T01:39:45.013Z,15.50
2018-10-18T01:42:12.530Z,15.50
2018-10-18T01:47:07.613Z,15.30
2018-10-18T01:52:02.693Z,15.60
2018-10-18T01:54:30.238Z,15.70
2018-10-18T01:59:25.208Z,15.50
2018-10-18T02:01:52.807Z,15.40
2018-10-18T02:09:15.200Z,15.20
2018-10-18T02:11:42.761Z,15.50
2018-10-18T02:14:10.293Z,15.50
2018-10-18T02:16:37.836Z,15.80
2018-10-18T02:21:32.932Z,15.50
2018-10-18T02:26:28.135Z,15.40
2018-10-18T02:28:55.711Z,15.50
2018-10-18T02:31:23.300Z,16.00
2018-10-18T02:33:50.871Z,15.70
2018-10-18T02:36:18.402Z,15.20
2018-10-18T02:38:45.933Z,15.20
2018-10-18T02:43:40.934Z,15.10
2018-10-18T02:46:08.486Z,15.30
2018-10-18T02:51:03.732Z,16.00
2018-10-18T02:53:31.282Z,15.90
2018-10-18T02:55:58.866Z,16.00
2018-10-18T03:00:53.983Z,16.10
2018-10-18T03:03:21.503Z,15.80
2018-10-18T03:05:49.032Z,15.40
2018-10-18T03:08:16.535Z,15.40
2018-10-18T03:10:44.060Z,15.40
2018-10-18T03:18:07.262Z,15.60
2018-10-18T03:20:34.739Z,14.80
2018-10-18T03:23:02.595Z,14.90
2018-10-18T03:25:30.156Z,15.60
2018-10-18T03:27:57.685Z,15.10
2018-10-18T03:30:25.275Z,15.40
2018-10-18T03:32:52.791Z,15.40
2018-10-18T03:35:20.414Z,15.70
2018-10-18T03:37:47.940Z,15.50
2018-10-18T03:45:10.391Z,15.10
2018-10-18T03:47:37.943Z,15.30
2018-10-18T03:50:05.526Z,15.40
2018-10-18T03:52:33.077Z,15.50
2018-10-18T03:55:00.689Z,15.70
2018-10-18T03:59:55.790Z,14.90
2018-10-18T04:02:23.337Z,15.40
2018-10-18T04:04:50.863Z,15.10
2018-10-18T04:07:18.424Z,15.20
2018-10-18T04:09:46.026Z,15.00
2018-10-18T04:12:13.654Z,15.10
2018-10-18T04:17:08.905Z,15.60
2018-10-18T04:19:36.441Z,15.20
2018-10-18T04:24:31.474Z,15.50
2018-10-18T04:29:26.821Z,15.70
2018-10-18T04:31:54.358Z,15.40
2018-10-18T04:34:21.999Z,15.50
2018-10-18T04:36:49.633Z,15.40
2018-10-18T04:39:17.165Z,15.40
2018-10-18T04:41:44.710Z,15.70
2018-10-18T04:49:08.820Z,15.40
2018-10-18T04:54:03.799Z,15.40
2018-10-18T04:56:32.021Z,15.40
2018-10-18T04:58:59.589Z,15.50
2018-10-18T05:01:27.394Z,15.40
2018-10-18T05:03:55.131Z,15.00
2018-10-18T05:08:50.168Z,14.90
2018-10-18T05:11:17.766Z,15.00
2018-10-18T05:13:45.272Z,15.50
2018-10-18T05:18:40.293Z,15.20
2018-10-18T05:23:35.254Z,15.50
2018-10-18T05:26:02.883Z,15.50
2018-10-18T05:33:25.841Z,15.30
2018-10-18T05:35:53.416Z,15.40
2018-10-18T05:38:20.922Z,15.10
2018-10-18T05:43:16.001Z,15.00
2018-10-18T05:50:38.419Z,15.00
2018-10-18T05:53:06.122Z,14.90
2018-10-18T05:55:33.524Z,15.30
2018-10-18T05:58:01.194Z,15.20
2018-10-18T06:00:28.735Z,14.90
2018-10-18T06:05:24.756Z,15.00
2018-10-18T06:17:48.928Z,15.00
2018-10-18T06:20:16.902Z,15.50
2018-10-18T06:22:44.515Z,15.70
2018-10-18T06:27:40.136Z,15.60
2018-10-18T06:39:59.623Z,15.70
2018-10-18T06:42:28.128Z,15.40
2018-10-18T06:44:55.717Z,15.80
2018-10-18T06:47:23.363Z,15.90
2018-10-18T06:54:47.053Z,16.10
2018-10-18T06:59:42.286Z,15.80
2018-10-18T07:02:09.781Z,16.00
2018-10-18T07:04:37.251Z,16.20
2018-10-18T07:07:05.523Z,16.40
2018-10-18T07:12:00.506Z,15.90
2018-10-18T07:14:28.032Z,16.40
2018-10-18T07:21:50.545Z,16.30
2018-10-18T07:24:18.213Z,16.60
2018-10-18T07:31:40.581Z,16.40
2018-10-18T07:34:08.172Z,16.20
2018-10-18T07:36:35.741Z,16.90
2018-10-18T07:39:05.598Z,16.60
2018-10-18T07:41:33.183Z,16.60
2018-10-18T07:44:00.700Z,16.70
2018-10-18T07:48:55.699Z,17.20
2018-10-18T07:53:50.671Z,17.00
2018-10-18T07:58:45.650Z,17.30
2018-10-18T08:03:40.601Z,17.50
2018-10-18T08:06:08.112Z,17.70
2018-10-18T08:08:35.639Z,18.20
2018-10-18T08:11:03.562Z,18.00
2018-10-18T08:13:31.032Z,18.00
2018-10-18T08:15:58.612Z,18.30
2018-10-18T08:20:53.605Z,18.60
2018-10-18T08:25:48.565Z,19.10
2018-10-18T08:28:16.123Z,19.30
2018-10-18T08:30:43.645Z,19.70
2018-10-18T08:33:11.250Z,20.30
2018-10-18T08:35:38.778Z,19.80
2018-10-18T08:40:33.772Z,20.00
2018-10-18T08:43:01.397Z,20.70
2018-10-18T08:47:56.343Z,20.80
2018-10-18T08:50:23.933Z,21.00
2018-10-18T08:52:51.482Z,21.00
2018-10-18T08:55:19.100Z,21.20
2018-10-18T08:57:46.580Z,21.30
2018-10-18T09:00:14.111Z,21.00
2018-10-18T09:02:42.240Z,21.40
2018-10-18T09:05:10.235Z,21.70
2018-10-18T09:07:37.837Z,22.40
2018-10-18T09:10:06.246Z,22.00
2018-10-18T09:12:33.832Z,22.00
2018-10-18T09:15:01.408Z,22.20
2018-10-18T09:17:28.909Z,22.70
2018-10-18T09:19:56.391Z,23.10
2018-10-18T09:22:23.917Z,22.60
2018-10-18T09:24:51.430Z,22.90
2018-10-18T09:27:19.019Z,22.90
2018-10-18T09:29:46.599Z,23.00
2018-10-18T09:32:14.122Z,23.30
2018-10-18T09:34:41.704Z,23.50
2018-10-18T09:37:09.320Z,23.70
2018-10-18T09:39:36.840Z,23.90
2018-10-18T09:42:04.996Z,23.90
2018-10-18T09:44:32.563Z,24.20
2018-10-18T09:47:00.149Z,24.50
2018-10-18T09:49:27.739Z,24.10
2018-10-18T09:54:22.752Z,25.00
2018-10-18T09:56:50.350Z,25.20
2018-10-18T09:59:17.969Z,25.30
2018-10-18T10:01:51.929Z,25.50
2018-10-18T10:04:19.487Z,25.70
2018-10-18T10:06:46.954Z,26.80
2018-10-18T10:09:14.520Z,26.50
2018-10-18T10:19:04.795Z,27.70
2018-10-18T10:21:32.301Z,28.40
2018-10-18T10:26:27.382Z,28.60
2018-10-18T10:31:22.396Z,28.60
2018-10-18T10:33:50.092Z,28.90
2018-10-18T10:36:17.625Z,29.10
2018-10-18T10:38:45.130Z,29.30
2018-10-18T10:41:12.713Z,29.40
2018-10-18T10:48:35.227Z,30.60
2018-10-18T10:51:02.793Z,30.80
2018-10-18T10:53:30.268Z,31.20
2018-10-18T10:55:57.856Z,31.10
2018-10-18T11:01:17.627Z,31.90
2018-10-18T11:03:45.673Z,31.90
2018-10-18T11:06:13.459Z,32.20
2018-10-18T11:11:12.672Z,31.80
2018-10-18T11:16:07.948Z,32.50
2018-10-18T11:21:04.873Z,34.30
2018-10-18T11:23:33.301Z,33.80
2018-10-18T11:26:00.964Z,33.90
2018-10-18T11:28:28.569Z,33.90
2018-10-18T11:30:56.101Z,33.60
2018-10-18T11:33:23.691Z,34.10
2018-10-18T11:35:51.212Z,33.20
2018-10-18T11:38:18.998Z,31.80
2018-10-18T11:43:13.883Z,29.60
2018-10-18T11:45:41.480Z,28.30
2018-10-18T11:48:10.665Z,27.20
2018-10-18T11:50:38.221Z,27.50
2018-10-18T11:55:34.030Z,30.80
2018-10-18T11:58:01.523Z,31.20
2018-10-18T12:05:24.028Z,32.20
2018-10-18T12:10:19.248Z,31.00
2018-10-18T12:15:14.289Z,28.30
2018-10-18T12:17:41.841Z,27.50
2018-10-18T12:20:13.434Z,27.00
2018-10-18T12:22:41.109Z,26.40
2018-10-18T12:25:09.261Z,26.00
2018-10-18T12:30:05.200Z,25.80
2018-10-18T12:32:32.720Z,25.80
2018-10-18T12:35:00.311Z,25.90
2018-10-18T12:37:27.851Z,26.20
2018-10-18T12:39:55.391Z,26.50
2018-10-18T12:42:23.073Z,26.50
2018-10-18T12:44:50.617Z,26.50
2018-10-18T12:47:18.175Z,26.60
2018-10-18T12:49:45.667Z,26.60
2018-10-18T12:52:13.910Z,26.60
2018-10-18T12:54:41.542Z,26.60
2018-10-18T12:57:10.650Z,26.60
2018-10-18T12:59:38.352Z,26.50
2018-10-18T13:02:06.134Z,26.40
2018-10-18T13:04:35.007Z,26.40
2018-10-18T13:07:03.062Z,25.90
2018-10-18T13:09:30.628Z,25.50
2018-10-18T13:11:58.431Z,25.20
2018-10-18T13:14:26.556Z,24.90
2018-10-18T13:16:54.082Z,24.70
2018-10-18T13:19:21.779Z,24.40
2018-10-18T13:21:49.334Z,24.20
2018-10-18T13:24:17.033Z,23.90
2018-10-18T13:26:44.533Z,23.70
2018-10-18T13:29:12.100Z,23.50
2018-10-18T13:31:39.640Z,23.30
2018-10-18T13:34:07.357Z,23.20
2018-10-18T13:36:34.826Z,23.20
2018-10-18T13:39:02.929Z,23.00
2018-10-18T13:41:30.455Z,23.00
2018-10-18T13:43:57.997Z,23.00
2018-10-18T13:48:52.938Z,23.30
2018-10-18T13:51:20.665Z,23.40
2018-10-18T13:53:48.216Z,23.60
2018-10-18T13:56:15.819Z,23.70
2018-10-18T13:58:43.352Z,23.50
2018-10-18T14:01:10.920Z,23.60
2018-10-18T14:03:38.502Z,23.70
2018-10-18T14:06:06.176Z,23.90
2018-10-18T14:11:01.418Z,24.20
2018-10-18T14:15:56.440Z,23.90
2018-10-18T14:18:23.983Z,23.60
2018-10-18T14:20:51.522Z,23.30
2018-10-18T14:23:19.194Z,23.00
2018-10-18T14:25:46.608Z,22.90
2018-10-18T14:30:41.962Z,22.80
2018-10-18T14:33:09.597Z,23.00
2018-10-18T14:35:37.184Z,23.40
2018-10-18T14:38:04.774Z,23.70
2018-10-18T14:40:32.297Z,24.00
2018-10-18T14:42:59.865Z,24.30
2018-10-18T14:47:54.849Z,24.90
2018-10-18T14:50:22.516Z,25.10
2018-10-18T14:52:49.993Z,29.00
2018-10-18T14:55:17.609Z,24.80
2018-10-18T14:57:45.229Z,24.30
2018-10-18T15:00:13.476Z,23.70
2018-10-18T15:02:41.293Z,23.30
2018-10-18T15:05:10.887Z,22.80
2018-10-18T15:10:08.549Z,22.60
2018-10-18T15:12:36.194Z,22.20
2018-10-18T15:15:03.995Z,21.10
2018-10-18T15:17:31.578Z,22.00
2018-10-18T15:19:59.157Z,21.80
2018-10-18T15:22:26.673Z,21.80
2018-10-18T15:24:54.255Z,21.70
2018-10-18T15:27:22.001Z,21.50
2018-10-18T15:29:49.910Z,21.30
2018-10-18T15:32:17.484Z,21.30
2018-10-18T15:34:45.037Z,21.30
2018-10-18T15:37:12.625Z,21.20
2018-10-18T15:39:40.406Z,21.20
2018-10-18T15:42:08.072Z,21.10
2018-10-18T15:44:35.840Z,21.10
2018-10-18T15:47:03.704Z,20.90
2018-10-18T15:49:31.320Z,20.90
2018-10-18T15:51:58.934Z,20.90
2018-10-18T15:54:26.659Z,20.80
2018-10-18T15:56:54.139Z,20.80
2018-10-18T16:01:49.228Z,20.70
2018-10-18T16:04:16.782Z,20.60
2018-10-18T16:06:44.392Z,20.50
2018-10-18T16:09:13.014Z,20.50
2018-10-18T16:11:40.552Z,20.40
2018-10-18T16:14:08.245Z,20.40
2018-10-18T16:16:35.751Z,20.40
2018-10-18T16:19:03.708Z,20.40
2018-10-18T16:21:31.240Z,20.20
2018-10-18T16:23:59.030Z,20.10
2018-10-18T16:26:26.627Z,20.10
2018-10-18T16:28:54.238Z,20.00
2018-10-18T16:31:21.766Z,20.00
2018-10-18T16:33:49.403Z,19.80
2018-10-18T16:36:16.869Z,19.80
2018-10-18T16:38:44.425Z,19.70
2018-10-18T16:41:12.159Z,19.70
2018-10-18T16:43:39.604Z,19.60
2018-10-18T16:46:07.232Z,19.50
2018-10-18T16:48:34.785Z,19.50
2018-10-18T16:51:02.338Z,19.50
2018-10-18T16:53:29.954Z,19.40
2018-10-18T16:55:57.829Z,19.30
2018-10-18T16:58:25.529Z,19.20
2018-10-18T17:00:53.133Z,19.20
2018-10-18T17:03:20.689Z,19.20
2018-10-18T17:05:48.326Z,19.10
2018-10-18T17:08:16.131Z,19.10
2018-10-18T17:10:43.676Z,19.00
2018-10-18T17:13:11.233Z,18.90
2018-10-18T17:15:38.872Z,18.90
2018-10-18T17:18:06.521Z,18.80
2018-10-18T17:20:34.188Z,18.80
2018-10-18T17:23:01.990Z,18.80
2018-10-18T17:25:29.609Z,18.80
2018-10-18T17:27:57.586Z,18.70
2018-10-18T17:30:25.301Z,18.70
2018-10-18T17:32:52.957Z,18.70
2018-10-18T17:35:20.668Z,18.60
2018-10-18T17:37:48.322Z,18.60
2018-10-18T17:40:16.035Z,18.50
2018-10-18T17:42:43.583Z,18.40
2018-10-18T17:45:11.950Z,18.30
2018-10-18T17:47:40.132Z,18.40
2018-10-18T17:50:08.216Z,18.40
2018-10-18T17:52:36.069Z,18.40
2018-10-18T17:55:04.496Z,18.30
2018-10-18T17:57:32.233Z,18.30
2018-10-18T17:59:59.972Z,18.30
2018-10-18T18:02:27.492Z,18.30
2018-10-18T18:04:55.070Z,18.30
2018-10-18T18:07:22.681Z,18.30
2018-10-18T18:09:50.377Z,18.10
2018-10-18T18:12:17.975Z,18.00
2018-10-18T18:14:45.574Z,18.00
2018-10-18T18:17:13.241Z,17.90
2018-10-18T18:19:40.804Z,17.90
2018-10-18T18:22:08.419Z,17.90
2018-10-18T18:24:35.963Z,18.00
2018-10-18T18:27:03.836Z,18.00
2018-10-18T18:31:58.976Z,18.10
2018-10-18T18:34:26.579Z,18.10
2018-10-18T18:36:54.191Z,18.10
2018-10-18T18:39:22.537Z,18.00
2018-10-18T18:41:50.178Z,18.10
2018-10-18T18:46:57.923Z,18.00
2018-10-18T18:49:25.598Z,18.00
2018-10-18T18:51:53.155Z,17.90
2018-10-18T18:54:20.803Z,17.90
2018-10-18T18:56:48.467Z,17.90
2018-10-18T18:59:16.029Z,17.80
2018-10-18T19:01:43.636Z,17.80
2018-10-18T19:04:11.325Z,17.80
2018-10-18T19:06:38.981Z,17.80
2018-10-18T19:09:07.556Z,17.70
2018-10-18T19:11:35.155Z,17.80
2018-10-18T19:14:02.759Z,17.80
2018-10-18T19:16:30.402Z,17.70
2018-10-18T19:18:57.961Z,17.70
2018-10-18T19:21:25.989Z,17.60
2018-10-18T19:23:53.534Z,17.90
2018-10-18T19:26:21.142Z,17.50
2018-10-18T19:28:48.720Z,17.50
2018-10-18T19:31:18.330Z,17.50
2018-10-18T19:33:46.201Z,17.40
2018-10-18T19:36:13.832Z,17.50
2018-10-18T19:38:43.466Z,17.50
2018-10-18T19:41:11.231Z,17.40
2018-10-18T19:43:39.299Z,17.30
2018-10-18T19:46:06.998Z,17.30
2018-10-18T19:53:32.646Z,17.50
2018-10-18T19:56:00.283Z,17.60
2018-10-18T20:03:22.966Z,17.40
2018-10-18T20:08:19.652Z,17.20
2018-10-18T20:10:47.333Z,17.10
2018-10-18T20:13:15.583Z,17.20
2018-10-18T20:15:43.167Z,17.10
2018-10-18T20:18:10.885Z,17.00
2018-10-18T20:20:40.655Z,17.00
2018-10-18T20:23:10.353Z,16.90
2018-10-18T20:30:34.018Z,16.90
2018-10-18T20:33:02.351Z,16.90
2018-10-18T20:35:30.022Z,17.00
2018-10-18T20:37:57.701Z,16.80
2018-10-18T20:40:25.380Z,16.90
2018-10-18T20:42:53.043Z,16.80
2018-10-18T20:45:26.611Z,16.70
2018-10-18T20:47:54.585Z,16.60
2018-10-18T20:52:50.702Z,16.60
2018-10-18T20:55:18.574Z,16.50
2018-10-18T21:00:16.742Z,16.50
2018-10-18T21:02:44.423Z,16.40
2018-10-18T21:05:12.063Z,16.30
2018-10-18T21:07:39.657Z,16.20
2018-10-18T21:10:07.233Z,16.20
2018-10-18T21:12:37.451Z,16.20
2018-10-18T21:15:05.236Z,16.10
2018-10-18T21:17:32.754Z,16.20
2018-10-18T21:20:00.387Z,16.10
2018-10-18T21:22:28.992Z,16.10
2018-10-18T21:27:24.520Z,16.10
2018-10-18T21:29:52.044Z,16.00
2018-10-18T21:32:19.669Z,16.00
2018-10-18T21:34:47.374Z,15.90
2018-10-18T21:37:14.987Z,15.90
2018-10-18T21:39:42.570Z,16.00
2018-10-18T21:42:10.093Z,16.00
2018-10-18T21:44:37.892Z,16.00
2018-10-18T21:47:05.596Z,16.00
2018-10-18T21:49:33.149Z,16.00
2018-10-18T21:52:00.828Z,16.00
2018-10-18T21:54:28.440Z,15.90
2018-10-18T21:56:56.505Z,16.00
2018-10-18T21:59:24.027Z,15.90
2018-10-18T22:01:51.661Z,15.80
2018-10-18T22:04:19.292Z,15.80
2018-10-18T22:06:47.341Z,15.70
2018-10-18T22:09:15.467Z,15.70
2018-10-18T22:11:42.950Z,15.70
2018-10-18T22:14:10.559Z,15.60
2018-10-18T22:16:39.015Z,15.70
2018-10-18T22:19:07.629Z,15.60
2018-10-18T22:21:35.735Z,15.60
2018-10-18T22:24:03.280Z,15.60
2018-10-18T22:26:30.851Z,15.50
2018-10-18T22:28:58.509Z,15.50
2018-10-18T22:31:26.166Z,15.40
2018-10-18T22:33:53.792Z,15.40
2018-10-18T22:36:21.811Z,15.40
2018-10-18T22:38:49.370Z,15.40
2018-10-18T22:41:16.892Z,15.40
2018-10-18T22:43:44.529Z,15.40
2018-10-18T22:46:12.111Z,15.40
2018-10-18T22:48:39.630Z,15.40
2018-10-18T22:51:07.264Z,15.40
2018-10-18T22:53:34.718Z,15.40
2018-10-18T22:56:02.305Z,15.50
2018-10-18T22:58:29.921Z,15.50
2018-10-18T23:00:57.448Z,15.50
2018-10-18T23:03:25.021Z,15.70
2018-10-18T23:08:20.075Z,15.60
2018-10-18T23:10:47.671Z,15.60
2018-10-18T23:15:42.740Z,15.60
2018-10-18T23:18:10.626Z,15.50
2018-10-18T23:20:39.131Z,15.40
2018-10-18T23:23:06.965Z,15.30
2018-10-18T23:25:34.545Z,15.40
2018-10-18T23:28:02.161Z,15.40
2018-10-18T23:30:29.705Z,15.50
2018-10-18T23:32:57.251Z,15.30
2018-10-18T23:35:24.786Z,15.30
2018-10-18T23:37:52.309Z,15.30
2018-10-18T23:40:19.889Z,15.30
2018-10-18T23:42:47.482Z,15.30
2018-10-18T23:45:15.057Z,15.40
2018-10-18T23:47:42.564Z,15.40
2018-10-18T23:50:10.111Z,15.40
2018-10-18T23:52:37.668Z,15.50
2018-10-18T23:55:06.382Z,15.50
2018-10-18T23:57:34.054Z,15.60
